Hlavní strana
METAR-TAF:

METAR-TAF

Letiště :

Čeboksary, Rusko

zeměpisná šířka: 56-05-24N, zeměpisná délka: 047-20-50E, výška: 171 m

Aktuální stav počasí

Zpráva byla vytvořena před 50 minutami, v 03:00 UTC
Severoseverozápadní vítr 6 kt
Teplota 1°C
Vlhkost vzduchu 59%
Tlak 1017 hPa
Viditelnost 10 km a více
Polojasno ve výšce 4000 ft

METAR: UWKS 050300Z 34003MPS 9999 SCT040 01/M06 Q1017 R06/////// NOSIG RMK QFE747

Čas: 06:50 (03:50 UTC)

Předpověď počasí

Zpráva byla vytvořena před 1 hodinou a 59 minutami, v 01:51 UTC
Předpověď platná od 05 v 03 UTC do 05 v 12 UTC
Severoseverozápadní vítr 12 kt s nárazy do 23 kt
Viditelnost 10 km a více
Oblačno až skoro zataženo ve výšce 1500 ft
Dočasný
od 05 v 09 UTC do 05 v 12 UTC
Západní vítr 14 kt s nárazy do 25 kt

TAF: UWKS 050151Z 0503/0512 33006G12MPS 9999 BKN015 TX04/0510Z TN01/0503Z TEMPO 0509/0512 27007G13MPS

Stav a předpovědi počasí z více než 4 000 letišť (zprávy METAR a TAF).

Červené a žluté tečky na mapě představují dostupné meteorologické stanice.

Když kurzor umístíte na tečku, zobrazí se název stanice.

Pak kliknutím zobrazíte stav a předpověď počasí.

Chcete-li změnit mapu, kliknutím na zelené tlačítko se znaménkem +mapu přiblížíte, kliknutím na zelené tlačítko se znaménkem – mapu oddálíte a kliknutím na zelené šipky přejdete na sousední mapy.


METAR-TAF: